createdAt,value
2018-04-02T00:01:18.065Z,7.43
2018-04-02T00:03:44.232Z,7.57
2018-04-02T00:06:10.469Z,8.77
2018-04-02T00:08:36.682Z,7.63
2018-04-02T00:11:02.926Z,7.83
2018-04-02T00:13:29.443Z,8.03
2018-04-02T00:15:56.387Z,8.23
2018-04-02T00:18:23.332Z,7.87
2018-04-02T00:20:49.862Z,4.37
2018-04-02T00:23:16.768Z,8.77
2018-04-02T00:25:42.918Z,8.37
2018-04-02T00:28:09.863Z,6.70
2018-04-02T00:30:35.981Z,8.10
2018-04-02T00:33:02.197Z,8.37
2018-04-02T00:35:28.681Z,7.73
2018-04-02T00:37:55.612Z,8.23
2018-04-02T00:40:21.866Z,6.40
2018-04-02T00:42:48.048Z,6.77
2018-04-02T00:45:14.223Z,8.17
2018-04-02T00:47:40.694Z,6.70
2018-04-02T00:50:07.108Z,3.27
2018-04-02T00:52:33.484Z,6.90
2018-04-02T00:54:59.936Z,5.17
2018-04-02T00:57:27.102Z,6.80
2018-04-02T00:59:53.260Z,7.30
2018-04-02T01:02:19.470Z,6.80
2018-04-02T01:04:45.672Z,6.60
2018-04-02T01:07:12.209Z,6.63
2018-04-02T01:09:38.412Z,8.03
2018-04-02T01:12:19.107Z,7.13
2018-04-02T01:17:36.268Z,7.60
2018-04-02T01:20:02.474Z,6.80
2018-04-02T01:22:28.642Z,7.23
2018-04-02T01:24:54.784Z,7.07
2018-04-02T01:27:21.664Z,7.17
2018-04-02T01:29:48.606Z,7.60
2018-04-02T01:32:15.504Z,5.87
2018-04-02T01:34:42.038Z,7.17
2018-04-02T01:37:08.199Z,7.50
2018-04-02T01:39:34.385Z,6.87
2018-04-02T01:42:01.680Z,6.73
2018-04-02T01:44:28.611Z,8.07
2018-04-02T01:46:55.137Z,6.63
2018-04-02T01:49:21.521Z,6.63
2018-04-02T01:51:48.195Z,8.13
2018-04-02T01:54:14.504Z,6.50
2018-04-02T01:56:40.894Z,7.80
2018-04-02T01:59:07.265Z,7.37
2018-04-02T02:01:33.594Z,8.80
2018-04-02T02:03:59.948Z,6.53
2018-04-02T02:06:26.348Z,7.20
2018-04-02T02:08:52.749Z,8.07
2018-04-02T02:11:19.060Z,8.77
2018-04-02T02:13:45.517Z,8.33
2018-04-02T02:16:11.883Z,9.60
2018-04-02T02:18:38.245Z,12.10
2018-04-02T02:21:04.662Z,10.03
2018-04-02T02:23:31.079Z,9.70
2018-04-02T02:25:57.811Z,7.80
2018-04-02T02:28:24.506Z,9.60
2018-04-02T02:30:50.889Z,9.63
2018-04-02T02:33:17.977Z,9.43
2018-04-02T02:35:44.379Z,10.53
2018-04-02T02:38:11.129Z,12.07
2018-04-02T02:40:37.475Z,13.40
2018-04-02T02:43:03.790Z,13.30
2018-04-02T02:45:37.980Z,13.10
2018-04-02T02:48:05.172Z,14.30
2018-04-02T02:50:31.519Z,16.03
2018-04-02T02:52:57.857Z,17.23
2018-04-02T02:55:24.564Z,16.77
2018-04-02T02:57:50.974Z,15.63
2018-04-02T03:00:17.316Z,17.83
2018-04-02T03:02:43.696Z,16.27
2018-04-02T03:05:10.049Z,20.70
2018-04-02T03:07:36.752Z,20.17
2018-04-02T03:10:03.132Z,21.60
2018-04-02T03:12:29.516Z,21.77
2018-04-02T03:14:55.852Z,18.90
2018-04-02T03:17:22.158Z,21.97
2018-04-02T03:19:48.458Z,23.27
2018-04-02T03:22:14.745Z,25.40
2018-04-02T03:24:41.082Z,25.03
2018-04-02T03:27:07.410Z,27.70
2018-04-02T03:29:33.805Z,24.97
2018-04-02T03:32:00.174Z,25.27
2018-04-02T03:34:26.557Z,25.33
2018-04-02T03:36:53.644Z,25.10
2018-04-02T03:39:22.062Z,25.70
2018-04-02T03:41:54.406Z,28.07
2018-04-02T03:44:26.836Z,26.70
2018-04-02T03:47:00.922Z,27.13
2018-04-02T03:49:33.626Z,25.53
2018-04-02T03:52:06.904Z,25.13
2018-04-02T03:54:39.230Z,24.37
2018-04-02T03:57:11.556Z,25.40
2018-04-02T03:59:44.000Z,24.50
2018-04-02T04:02:16.288Z,25.40
2018-04-02T04:04:48.815Z,25.03
2018-04-02T04:07:21.092Z,24.30
2018-04-02T04:09:53.496Z,23.90
2018-04-02T04:12:25.874Z,21.87
2018-04-02T04:14:58.573Z,22.50
2018-04-02T04:17:31.196Z,24.70
2018-04-02T04:20:03.532Z,23.70
2018-04-02T04:22:35.899Z,24.57
2018-04-02T04:25:08.285Z,20.43
2018-04-02T04:27:41.349Z,21.57
2018-04-02T04:30:13.901Z,23.33
2018-04-02T04:32:46.880Z,20.93
2018-04-02T04:35:19.325Z,24.70
2018-04-02T04:37:51.629Z,21.17
2018-04-02T04:40:24.109Z,21.40
2018-04-02T04:42:57.117Z,20.10
2018-04-02T04:45:29.604Z,21.07
2018-04-02T04:48:02.763Z,20.87
2018-04-02T04:50:35.261Z,18.90
2018-04-02T04:53:07.806Z,18.13
2018-04-02T04:55:40.209Z,19.30
2018-04-02T04:58:13.438Z,17.27
2018-04-02T05:00:46.018Z,15.27
2018-04-02T05:03:18.365Z,17.17
2018-04-02T05:05:50.819Z,16.53
2018-04-02T05:08:23.094Z,14.37
2018-04-02T05:10:55.484Z,15.17
2018-04-02T05:13:28.353Z,15.90
2018-04-02T05:16:01.657Z,16.63
2018-04-02T05:18:33.992Z,14.93
2018-04-02T05:21:06.406Z,15.63
2018-04-02T05:23:38.780Z,13.03
2018-04-02T05:28:50.853Z,15.67
2018-04-02T05:31:23.226Z,14.37
2018-04-02T05:33:55.528Z,13.60
2018-04-02T05:36:28.327Z,13.30
2018-04-02T05:39:00.893Z,12.97
2018-04-02T05:41:33.384Z,12.70
2018-04-02T05:44:05.789Z,12.10
2018-04-02T05:46:38.376Z,9.40
2018-04-02T05:49:10.681Z,11.57
2018-04-02T05:51:43.972Z,11.60
2018-04-02T05:54:17.174Z,11.53
2018-04-02T05:56:49.637Z,10.83
2018-04-02T05:59:22.016Z,10.33
2018-04-02T06:01:55.206Z,8.53
2018-04-02T06:04:27.558Z,11.93
2018-04-02T06:06:59.848Z,13.13
2018-04-02T06:09:32.201Z,12.77
2018-04-02T06:12:04.878Z,12.20
2018-04-02T06:14:37.354Z,11.40
2018-04-02T06:17:11.508Z,11.33
2018-04-02T06:19:43.966Z,11.80
2018-04-02T06:22:16.494Z,11.50
2018-04-02T06:24:48.821Z,10.10
2018-04-02T06:27:21.261Z,9.27
2018-04-02T06:29:53.563Z,11.00
2018-04-02T06:32:27.064Z,10.57
2018-04-02T06:34:59.752Z,10.37
2018-04-02T06:37:32.181Z,9.90
2018-04-02T06:40:05.205Z,9.23
2018-04-02T06:42:37.600Z,9.90
2018-04-02T06:45:10.044Z,9.60
2018-04-02T06:47:44.121Z,9.17
2018-04-02T06:50:16.511Z,9.73
2018-04-02T06:52:48.941Z,7.87
2018-04-02T06:55:22.245Z,9.90
2018-04-02T06:57:54.811Z,8.13
2018-04-02T07:00:27.531Z,8.23
2018-04-02T07:02:59.889Z,8.73
2018-04-02T07:05:32.349Z,12.00
2018-04-02T07:08:04.827Z,7.20
2018-04-02T07:10:37.418Z,8.50
2018-04-02T07:13:09.782Z,8.23
2018-04-02T07:15:42.147Z,7.57
2018-04-02T07:18:14.687Z,8.47
2018-04-02T07:20:47.134Z,8.13
2018-04-02T07:23:19.849Z,8.47
2018-04-02T07:25:53.015Z,5.43
2018-04-02T07:28:25.493Z,9.70
2018-04-02T07:30:58.059Z,8.13
2018-04-02T07:33:30.430Z,8.63
2018-04-02T07:36:02.874Z,8.53
2018-04-02T07:38:35.248Z,5.57
2018-04-02T07:41:07.850Z,7.80
2018-04-02T07:43:40.183Z,6.77
2018-04-02T07:46:12.586Z,7.13
2018-04-02T07:48:46.104Z,7.50
2018-04-02T07:51:19.343Z,7.93
2018-04-02T07:53:51.708Z,7.70
2018-04-02T07:56:23.988Z,7.60
2018-04-02T07:58:57.010Z,8.57
2018-04-02T08:01:29.373Z,7.57
2018-04-02T08:04:01.870Z,8.70
2018-04-02T08:06:34.259Z,9.10
2018-04-02T08:09:07.818Z,7.90
2018-04-02T08:11:40.544Z,7.27
2018-04-02T08:14:13.323Z,7.33
2018-04-02T08:16:46.841Z,7.20
2018-04-02T08:19:19.270Z,8.30
2018-04-02T08:21:52.621Z,7.50
2018-04-02T08:24:25.153Z,6.80
2018-04-02T08:26:58.048Z,7.50
2018-04-02T08:29:30.489Z,7.67
2018-04-02T08:32:04.261Z,8.30
2018-04-02T08:34:37.361Z,6.63
2018-04-02T08:37:10.660Z,6.97
2018-04-02T08:39:43.576Z,6.73
2018-04-02T08:42:15.884Z,7.80
2018-04-02T08:44:49.123Z,7.67
2018-04-02T08:47:21.795Z,7.50
2018-04-02T08:49:55.127Z,7.00
2018-04-02T08:52:27.648Z,6.60
2018-04-02T08:55:01.007Z,5.90
2018-04-02T08:57:33.716Z,7.53
2018-04-02T09:00:06.288Z,7.13
2018-04-02T09:02:38.785Z,5.00
2018-04-02T09:05:11.404Z,7.03
2018-04-02T09:07:44.014Z,5.80
2018-04-02T09:10:16.790Z,4.80
2018-04-02T09:12:49.237Z,5.90
2018-04-02T09:15:22.297Z,4.70
2018-04-02T09:17:54.637Z,5.13
2018-04-02T09:20:28.540Z,6.03
2018-04-02T09:23:02.372Z,4.60
2018-04-02T09:25:34.974Z,4.20
2018-04-02T09:28:07.398Z,4.07
2018-04-02T09:30:39.787Z,3.80
2018-04-02T09:33:12.136Z,4.20
2018-04-02T09:35:45.284Z,4.60
2018-04-02T09:38:17.721Z,4.20
2018-04-02T09:40:52.021Z,3.73
2018-04-02T09:43:25.176Z,3.60
2018-04-02T09:45:58.337Z,3.80
2018-04-02T09:48:31.871Z,3.00
2018-04-02T09:51:04.367Z,3.33
2018-04-02T09:53:38.459Z,3.70
2018-04-02T09:56:12.113Z,4.40
2018-04-02T09:58:44.676Z,3.57
2018-04-02T10:01:17.292Z,3.80
2018-04-02T10:03:54.390Z,3.40
2018-04-02T10:06:27.589Z,4.43
2018-04-02T10:09:00.094Z,2.83
2018-04-02T10:11:33.323Z,3.67
2018-04-02T10:14:06.068Z,3.73
2018-04-02T10:16:39.276Z,4.47
2018-04-02T10:19:11.751Z,4.03
2018-04-02T10:21:44.673Z,3.00
2018-04-02T10:24:17.367Z,3.40
2018-04-02T10:26:50.683Z,3.07
2018-04-02T10:29:24.662Z,3.17
2018-04-02T10:31:58.000Z,3.97
2018-04-02T10:34:30.336Z,3.72
2018-04-02T10:37:02.766Z,3.30
2018-04-02T10:39:35.364Z,3.37
2018-04-02T10:42:08.490Z,3.20
2018-04-02T10:44:41.622Z,3.13
2018-04-02T10:47:14.662Z,3.30
2018-04-02T10:49:46.913Z,3.40
2018-04-02T10:52:19.212Z,2.13
2018-04-02T10:54:51.589Z,2.87
2018-04-02T10:57:24.012Z,2.50
2018-04-02T10:59:56.468Z,3.20
2018-04-02T11:02:29.668Z,3.00
2018-04-02T11:05:02.632Z,2.67
2018-04-02T11:07:35.018Z,2.50
2018-04-02T11:10:07.738Z,2.90
2018-04-02T11:12:41.305Z,3.63
2018-04-02T11:15:15.190Z,2.23
2018-04-02T11:17:47.798Z,2.07
2018-04-02T11:20:20.405Z,2.20
2018-04-02T11:22:53.741Z,2.47
2018-04-02T11:25:27.322Z,3.00
2018-04-02T11:28:00.515Z,2.60
2018-04-02T11:30:32.895Z,2.80
2018-04-02T11:33:06.010Z,3.13
2018-04-02T11:35:38.971Z,2.63
2018-04-02T11:38:11.745Z,3.30
2018-04-02T11:40:44.318Z,2.73
2018-04-02T11:43:16.719Z,2.57
2018-04-02T11:45:49.923Z,2.30
2018-04-02T11:48:22.737Z,2.37
2018-04-02T11:50:56.520Z,2.70
2018-04-02T11:53:29.046Z,2.40
2018-04-02T11:56:01.771Z,2.73
2018-04-02T11:58:35.320Z,2.07
2018-04-02T12:01:07.801Z,2.43
2018-04-02T12:03:41.017Z,2.43
2018-04-02T12:06:15.865Z,2.80
2018-04-02T12:08:48.767Z,2.23
2018-04-02T12:11:21.455Z,2.07
2018-04-02T12:13:55.292Z,2.00
2018-04-02T12:16:28.955Z,2.63
2018-04-02T12:19:02.192Z,2.00
2018-04-02T12:21:34.704Z,1.73
2018-04-02T12:24:08.246Z,1.80
2018-04-02T12:26:40.668Z,2.23
2018-04-02T12:29:13.926Z,2.00
2018-04-02T12:31:46.846Z,1.77
2018-04-02T12:34:19.414Z,1.87
2018-04-02T12:36:51.934Z,2.53
2018-04-02T12:39:24.888Z,3.10
2018-04-02T12:41:57.582Z,2.73
2018-04-02T12:44:30.244Z,2.40
2018-04-02T12:47:03.612Z,2.40
2018-04-02T12:49:36.688Z,1.90
2018-04-02T12:52:09.771Z,2.13
2018-04-02T12:54:42.588Z,2.30
2018-04-02T12:57:15.470Z,2.57
2018-04-02T12:59:48.797Z,1.87
2018-04-02T13:02:21.441Z,2.30
2018-04-02T13:04:55.341Z,2.50
2018-04-02T13:07:29.285Z,2.53
2018-04-02T13:10:02.185Z,2.50
2018-04-02T13:12:36.258Z,3.20
2018-04-02T13:15:08.744Z,2.30
2018-04-02T13:17:44.438Z,2.80
2018-04-02T13:20:16.951Z,2.40
2018-04-02T13:22:49.251Z,2.97
2018-04-02T13:25:22.070Z,2.77
2018-04-02T13:27:54.576Z,2.90
2018-04-02T13:30:27.150Z,3.50
2018-04-02T13:32:59.960Z,3.07
2018-04-02T13:35:33.004Z,3.10
2018-04-02T13:38:06.147Z,3.60
2018-04-02T13:40:40.026Z,2.50
2018-04-02T13:43:12.762Z,3.30
2018-04-02T13:45:45.199Z,3.40
2018-04-02T13:48:18.483Z,2.97
2018-04-02T13:50:51.232Z,4.47
2018-04-02T13:53:24.113Z,3.70
2018-04-02T13:55:56.751Z,3.80
2018-04-02T13:58:29.327Z,4.37
2018-04-02T14:01:02.566Z,3.60
2018-04-02T14:03:35.132Z,4.80
2018-04-02T14:06:07.728Z,4.70
2018-04-02T14:08:40.649Z,4.70
2018-04-02T14:11:13.273Z,4.60
2018-04-02T14:13:45.861Z,5.40
2018-04-02T14:16:19.163Z,4.63
2018-04-02T14:18:51.668Z,6.20
2018-04-02T14:21:24.113Z,4.40
2018-04-02T14:23:56.691Z,5.10
2018-04-02T14:26:29.378Z,5.37
2018-04-02T14:29:01.989Z,6.27
2018-04-02T14:31:35.281Z,7.30
2018-04-02T14:34:07.676Z,5.20
2018-04-02T14:36:40.674Z,5.40
2018-04-02T14:39:13.274Z,4.67
2018-04-02T14:41:46.627Z,4.53
2018-04-02T14:44:19.733Z,6.20
2018-04-02T14:46:52.762Z,5.43
2018-04-02T14:49:25.345Z,5.20
2018-04-02T14:51:58.704Z,7.27
2018-04-02T14:54:31.406Z,5.07
2018-04-02T14:57:04.534Z,4.87
2018-04-02T14:59:36.896Z,5.23
2018-04-02T15:02:10.097Z,5.10
2018-04-02T15:04:50.355Z,5.00
2018-04-02T15:07:23.639Z,5.03
2018-04-02T15:09:56.774Z,5.53
2018-04-02T15:12:29.166Z,5.67
2018-04-02T15:15:01.490Z,4.90
2018-04-02T15:17:33.866Z,6.37
2018-04-02T15:20:06.930Z,5.67
2018-04-02T15:22:39.325Z,4.90
2018-04-02T15:25:11.733Z,5.17
2018-04-02T15:27:44.813Z,5.07
2018-04-02T15:30:18.854Z,5.20
2018-04-02T15:32:52.491Z,6.00
2018-04-02T15:35:25.617Z,7.37
2018-04-02T15:37:57.984Z,5.77
2018-04-02T15:40:30.360Z,6.57
2018-04-02T15:43:04.411Z,6.10
2018-04-02T15:45:37.082Z,7.60
2018-04-02T15:48:10.634Z,5.87
2018-04-02T15:50:43.672Z,6.10
2018-04-02T15:53:16.519Z,5.60
2018-04-02T15:55:49.440Z,5.73
2018-04-02T15:58:21.918Z,5.87
2018-04-02T16:00:56.081Z,5.40
2018-04-02T16:03:30.208Z,6.10
2018-04-02T16:06:02.721Z,5.30
2018-04-02T16:08:35.711Z,5.63
2018-04-02T16:11:08.764Z,5.97
2018-04-02T16:13:42.073Z,5.97
2018-04-02T16:16:14.570Z,5.80
2018-04-02T16:18:47.552Z,5.40
2018-04-02T16:21:20.046Z,7.30
2018-04-02T16:23:53.377Z,6.53
2018-04-02T16:26:25.900Z,5.20
2018-04-02T16:28:58.340Z,6.90
2018-04-02T16:31:30.734Z,6.93
2018-04-02T16:34:03.389Z,7.10
2018-04-02T16:36:35.889Z,6.37
2018-04-02T16:39:08.558Z,6.60
2018-04-02T16:41:41.296Z,6.67
2018-04-02T16:44:13.959Z,6.63
2018-04-02T16:46:46.813Z,6.23
2018-04-02T16:49:20.329Z,6.80
2018-04-02T16:51:53.699Z,6.40
2018-04-02T16:54:27.074Z,6.47
2018-04-02T16:56:59.648Z,6.00
2018-04-02T16:59:33.285Z,7.23
2018-04-02T17:02:05.631Z,7.40
2018-04-02T17:04:38.149Z,6.60
2018-04-02T17:07:11.103Z,6.40
2018-04-02T17:09:44.354Z,7.17
2018-04-02T17:12:16.719Z,7.00
2018-04-02T17:14:49.120Z,6.97
2018-04-02T17:17:23.129Z,7.57
2018-04-02T17:19:55.666Z,8.67
2018-04-02T17:22:28.914Z,7.73
2018-04-02T17:25:01.803Z,8.00
2018-04-02T17:27:35.633Z,8.17
2018-04-02T17:30:08.075Z,8.07
2018-04-02T17:32:41.013Z,8.00
2018-04-02T17:35:13.486Z,7.67
2018-04-02T17:37:46.113Z,7.20
2018-04-02T17:40:18.947Z,6.83
2018-04-02T17:42:51.474Z,7.00
2018-04-02T17:45:24.311Z,6.50
2018-04-02T17:47:56.626Z,6.60
2018-04-02T17:50:29.243Z,7.40
2018-04-02T17:53:01.576Z,8.37
2018-04-02T17:55:34.543Z,7.27
2018-04-02T17:58:07.561Z,8.10
2018-04-02T18:00:41.004Z,8.63
2018-04-02T18:03:13.730Z,8.43
2018-04-02T18:05:48.181Z,6.67
2018-04-02T18:08:24.877Z,6.90
2018-04-02T18:10:57.341Z,7.57
2018-04-02T18:13:30.894Z,7.80
2018-04-02T18:16:03.909Z,5.37
2018-04-02T18:18:36.670Z,5.93
2018-04-02T18:21:10.122Z,7.30
2018-04-02T18:23:42.768Z,8.10
2018-04-02T18:26:16.030Z,7.40
2018-04-02T18:28:48.862Z,8.20
2018-04-02T18:31:22.081Z,6.80
2018-04-02T18:33:54.867Z,7.70
2018-04-02T18:36:27.611Z,8.60
2018-04-02T18:39:02.687Z,7.57
2018-04-02T18:41:35.938Z,8.10
2018-04-02T18:44:08.811Z,7.13
2018-04-02T18:46:41.547Z,8.20
2018-04-02T18:49:14.841Z,8.10
2018-04-02T18:51:48.744Z,7.43
2018-04-02T18:54:21.377Z,8.10
2018-04-02T18:56:54.729Z,7.60
2018-04-02T18:59:27.666Z,8.20
2018-04-02T19:02:00.268Z,8.37
2018-04-02T19:04:33.641Z,7.90
2018-04-02T19:07:06.478Z,7.90
2018-04-02T19:09:39.762Z,8.00
2018-04-02T19:12:12.888Z,7.90
2018-04-02T19:14:45.545Z,7.63
2018-04-02T19:17:18.855Z,7.60
2018-04-02T19:19:51.515Z,7.80
2018-04-02T19:22:24.145Z,6.53
2018-04-02T19:24:56.659Z,8.20
2018-04-02T19:27:29.758Z,7.87
2018-04-02T19:30:02.210Z,8.50
2018-04-02T19:32:35.816Z,7.07
2018-04-02T19:35:08.412Z,8.87
2018-04-02T19:37:42.126Z,7.10
2018-04-02T19:40:14.693Z,7.43
2018-04-02T19:42:47.517Z,7.70
2018-04-02T19:45:19.829Z,7.67
2018-04-02T19:47:52.141Z,8.10
2018-04-02T19:50:24.602Z,7.80
2018-04-02T19:52:57.691Z,7.73
2018-04-02T19:55:30.958Z,7.10
2018-04-02T19:58:05.218Z,6.97
2018-04-02T20:00:37.694Z,7.30
2018-04-02T20:03:11.912Z,8.03
2018-04-02T20:05:44.478Z,7.13
2018-04-02T20:08:18.017Z,6.73
2018-04-02T20:10:50.616Z,5.87
2018-04-02T20:13:23.033Z,6.30
2018-04-02T20:15:55.366Z,7.40
2018-04-02T20:18:28.131Z,6.23
2018-04-02T20:21:00.976Z,6.63
2018-04-02T20:23:33.481Z,6.33
2018-04-02T20:26:06.060Z,6.83
2018-04-02T20:28:38.348Z,7.10
2018-04-02T20:31:11.050Z,6.53
2018-04-02T20:33:44.341Z,5.93
2018-04-02T20:36:16.876Z,6.10
2018-04-02T20:38:49.260Z,7.57
2018-04-02T20:41:21.834Z,7.80
2018-04-02T20:43:54.157Z,7.20
2018-04-02T20:46:26.535Z,6.57
2018-04-02T20:48:59.104Z,5.57
2018-04-02T20:51:31.888Z,5.47
2018-04-02T20:54:04.546Z,5.43
2018-04-02T20:56:37.148Z,5.50
2018-04-02T20:59:09.694Z,6.00
2018-04-02T21:01:42.094Z,4.87
2018-04-02T21:04:15.029Z,5.40
2018-04-02T21:06:47.408Z,5.60
2018-04-02T21:09:19.773Z,5.00
2018-04-02T21:11:58.234Z,5.10
2018-04-02T21:14:30.597Z,5.70
2018-04-02T21:17:03.032Z,5.43
2018-04-02T21:19:35.560Z,5.83
2018-04-02T21:22:08.030Z,4.77
2018-04-02T21:24:40.404Z,4.77
2018-04-02T21:27:12.856Z,5.33
2018-04-02T21:29:45.462Z,5.03
2018-04-02T21:32:18.713Z,6.20
2018-04-02T21:34:52.277Z,4.83
2018-04-02T21:37:25.639Z,5.40
2018-04-02T21:39:58.825Z,5.50
2018-04-02T21:42:31.259Z,5.83
2018-04-02T21:45:04.032Z,5.27
2018-04-02T21:47:36.458Z,4.77
2018-04-02T21:50:09.413Z,5.80
2018-04-02T21:52:41.982Z,5.47
2018-04-02T21:55:14.616Z,4.93
2018-04-02T21:57:46.952Z,4.90
2018-04-02T22:00:19.356Z,6.20
2018-04-02T22:02:51.752Z,5.77
2018-04-02T22:05:25.317Z,5.10
2018-04-02T22:08:08.749Z,6.00
2018-04-02T22:10:41.424Z,4.90
2018-04-02T22:13:14.287Z,5.60
2018-04-02T22:15:47.373Z,4.83
2018-04-02T22:18:19.898Z,5.70
2018-04-02T22:20:52.294Z,4.73
2018-04-02T22:23:25.307Z,5.87
2018-04-02T22:25:58.437Z,5.60
2018-04-02T22:28:31.174Z,5.37
2018-04-02T22:31:03.542Z,5.40
2018-04-02T22:33:35.891Z,5.70
2018-04-02T22:36:08.704Z,5.00
2018-04-02T22:38:41.816Z,5.37
2018-04-02T22:41:14.744Z,5.60
2018-04-02T22:43:47.351Z,5.97
2018-04-02T22:46:20.806Z,5.47
2018-04-02T22:48:53.283Z,6.47
2018-04-02T22:51:25.936Z,5.70
2018-04-02T22:53:59.057Z,6.10
2018-04-02T22:56:32.328Z,5.10
2018-04-02T22:59:04.758Z,5.63
2018-04-02T23:01:38.059Z,5.30
2018-04-02T23:04:10.514Z,5.10
2018-04-02T23:06:43.305Z,4.73
2018-04-02T23:09:15.723Z,5.20
2018-04-02T23:11:48.659Z,6.17
2018-04-02T23:14:21.063Z,6.07
2018-04-02T23:16:53.691Z,5.17
2018-04-02T23:19:26.264Z,5.80
2018-04-02T23:21:59.707Z,5.87
2018-04-02T23:24:32.358Z,5.07
2018-04-02T23:27:05.579Z,5.67
2018-04-02T23:29:38.241Z,5.80
2018-04-02T23:32:11.457Z,6.43
2018-04-02T23:34:44.486Z,6.50
2018-04-02T23:37:18.035Z,7.03
2018-04-02T23:39:51.365Z,5.93
2018-04-02T23:42:24.065Z,7.10
2018-04-02T23:44:56.666Z,5.97
2018-04-02T23:47:29.649Z,6.47
2018-04-02T23:50:02.844Z,5.70
2018-04-02T23:52:36.340Z,6.20
2018-04-02T23:55:08.755Z,7.40
2018-04-02T23:57:41.277Z,6.50
